createdAt,value
2023-03-16T00:00:08.588Z,92.83
2023-03-16T00:01:08.556Z,92.63
2023-03-16T00:02:08.615Z,92.52
2023-03-16T00:03:08.591Z,92.52
2023-03-16T00:04:08.538Z,92.42
2023-03-16T00:05:08.511Z,92.31
2023-03-16T00:06:08.524Z,92.63
2023-03-16T00:07:08.489Z,92.94
2023-03-16T00:08:08.480Z,92.94
2023-03-16T00:09:08.459Z,92.83
2023-03-16T00:10:08.481Z,92.73
2023-03-16T00:11:08.459Z,92.88
2023-03-16T00:12:08.427Z,93.08
2023-03-16T00:13:08.405Z,93.40
2023-03-16T00:14:08.405Z,93.82
2023-03-16T00:15:08.387Z,93.93
2023-03-16T00:16:08.408Z,93.71
2023-03-16T00:17:08.354Z,93.71
2023-03-16T00:18:08.344Z,93.71
2023-03-16T00:19:08.334Z,93.82
2023-03-16T00:20:08.328Z,93.93
2023-03-16T00:21:08.301Z,93.93
2023-03-16T00:22:08.301Z,93.71
2023-03-16T00:23:08.283Z,93.82
2023-03-16T00:24:08.280Z,93.82
2023-03-16T00:25:08.271Z,93.82
2023-03-16T00:26:08.274Z,93.88
2023-03-16T00:27:08.253Z,93.78
2023-03-16T00:28:08.230Z,93.78
2023-03-16T00:29:08.200Z,93.78
2023-03-16T00:30:08.194Z,93.15
2023-03-16T00:31:08.183Z,92.42
2023-03-16T00:32:08.169Z,92.04
2023-03-16T00:33:08.299Z,92.14
2023-03-16T00:34:08.142Z,92.14
2023-03-16T00:35:09.513Z,92.40
2023-03-16T00:36:08.263Z,92.67
2023-03-16T00:37:08.147Z,92.71
2023-03-16T00:38:08.092Z,92.82
2023-03-16T00:39:08.067Z,93.08
2023-03-16T00:40:08.086Z,93.30
2023-03-16T00:41:08.050Z,93.34
2023-03-16T00:42:08.023Z,93.61
2023-03-16T00:43:08.038Z,93.82
2023-03-16T00:44:08.013Z,94.03
2023-03-16T00:45:07.996Z,93.82
2023-03-16T00:46:08.088Z,93.51
2023-03-16T00:47:07.972Z,93.30
2023-03-16T00:48:07.975Z,93.19
2023-03-16T00:49:07.938Z,93.19
2023-03-16T00:50:07.941Z,92.77
2023-03-16T00:51:07.949Z,92.71
2023-03-16T00:52:07.921Z,92.92
2023-03-16T00:53:07.886Z,93.02
2023-03-16T00:54:07.877Z,93.13
2023-03-16T00:55:07.856Z,93.34
2023-03-16T00:56:07.853Z,93.44
2023-03-16T00:57:07.833Z,93.65
2023-03-16T00:58:07.830Z,93.65
2023-03-16T00:59:07.836Z,93.55
2023-03-16T01:00:07.809Z,93.44
2023-03-16T01:01:07.919Z,93.44
2023-03-16T01:02:07.770Z,93.51
2023-03-16T01:03:07.862Z,93.24
2023-03-16T01:04:07.747Z,93.13
2023-03-16T01:05:07.743Z,93.13
2023-03-16T01:06:07.740Z,93.44
2023-03-16T01:07:07.732Z,93.55
2023-03-16T01:08:07.711Z,93.55
2023-03-16T01:09:07.680Z,93.44
2023-03-16T01:10:07.679Z,93.44
2023-03-16T01:11:07.663Z,93.55
2023-03-16T01:12:07.673Z,93.55
2023-03-16T01:13:07.639Z,93.34
2023-03-16T01:14:07.623Z,93.38
2023-03-16T01:15:07.636Z,93.49
2023-03-16T01:16:07.595Z,93.80
2023-03-16T01:17:07.607Z,93.87
2023-03-16T01:18:07.580Z,93.59
2023-03-16T01:19:07.567Z,93.59
2023-03-16T01:20:07.552Z,93.70
2023-03-16T01:21:07.540Z,93.80
2023-03-16T01:22:07.516Z,93.59
2023-03-16T01:23:07.513Z,93.49
2023-03-16T01:24:07.492Z,93.43
2023-03-16T01:25:07.491Z,93.80
2023-03-16T01:26:07.478Z,94.01
2023-03-16T01:27:07.467Z,94.01
2023-03-16T01:28:07.447Z,94.12
2023-03-16T01:29:07.433Z,94.12
2023-03-16T01:30:07.420Z,94.01
2023-03-16T01:31:07.537Z,93.91
2023-03-16T01:32:07.405Z,94.01
2023-03-16T01:33:07.546Z,94.12
2023-03-16T01:34:07.368Z,94.12
2023-03-16T01:35:07.363Z,94.32
2023-03-16T01:36:07.402Z,94.32
2023-03-16T01:37:07.328Z,94.18
2023-03-16T01:38:07.323Z,94.01
2023-03-16T01:39:07.308Z,93.80
2023-03-16T01:40:07.289Z,93.63
2023-03-16T01:41:07.271Z,93.74
2023-03-16T01:42:07.270Z,93.95
2023-03-16T01:43:07.245Z,94.16
2023-03-16T01:44:07.233Z,94.16
2023-03-16T01:45:07.225Z,94.26
2023-03-16T01:46:07.344Z,94.37
2023-03-16T01:47:07.218Z,94.58
2023-03-16T01:48:07.190Z,94.89
2023-03-16T01:49:07.173Z,95.00
2023-03-16T01:50:07.157Z,94.89
2023-03-16T01:51:07.139Z,94.58
2023-03-16T01:52:07.155Z,94.37
2023-03-16T01:53:07.123Z,94.26
2023-03-16T01:54:07.104Z,94.41
2023-03-16T01:55:07.096Z,94.51
2023-03-16T01:56:07.079Z,94.73
2023-03-16T01:57:07.071Z,94.93
2023-03-16T01:58:07.059Z,95.10
2023-03-16T01:59:07.060Z,95.21
2023-03-16T02:00:07.029Z,95.31
2023-03-16T02:01:07.137Z,95.31
2023-03-16T02:02:07.004Z,95.42
2023-03-16T02:03:07.018Z,95.31
2023-03-16T02:04:07.038Z,95.27
2023-03-16T02:05:06.965Z,95.27
2023-03-16T02:06:06.967Z,94.95
2023-03-16T02:07:06.939Z,94.85
2023-03-16T02:08:06.922Z,94.32
2023-03-16T02:09:06.931Z,93.91
2023-03-16T02:10:06.907Z,93.91
2023-03-16T02:11:06.889Z,93.84
2023-03-16T02:12:06.881Z,93.84
2023-03-16T02:13:06.856Z,93.84
2023-03-16T02:14:06.861Z,94.06
2023-03-16T02:15:06.839Z,94.16
2023-03-16T02:16:06.878Z,93.95
2023-03-16T02:17:06.813Z,94.06
2023-03-16T02:18:06.804Z,94.37
2023-03-16T02:19:06.817Z,94.37
2023-03-16T02:20:06.776Z,94.47
2023-03-16T02:21:06.765Z,94.37
2023-03-16T02:22:06.741Z,94.06
2023-03-16T02:23:06.725Z,93.84
2023-03-16T02:24:06.716Z,93.95
2023-03-16T02:25:06.700Z,94.16
2023-03-16T02:26:06.690Z,94.26
2023-03-16T02:27:06.676Z,94.10
2023-03-16T02:28:06.663Z,94.10
2023-03-16T02:29:06.649Z,94.10
2023-03-16T02:30:06.642Z,94.31
2023-03-16T02:31:06.676Z,94.51
2023-03-16T02:32:06.620Z,94.62
2023-03-16T02:33:06.659Z,94.83
2023-03-16T02:34:06.583Z,95.10
2023-03-16T02:35:06.605Z,95.10
2023-03-16T02:36:06.624Z,95.00
2023-03-16T02:37:06.545Z,94.89
2023-03-16T02:38:06.530Z,94.68
2023-03-16T02:39:06.537Z,94.62
2023-03-16T02:40:06.515Z,94.58
2023-03-16T02:41:06.501Z,94.37
2023-03-16T02:42:06.478Z,94.26
2023-03-16T02:43:06.477Z,94.37
2023-03-16T02:44:06.461Z,94.41
2023-03-16T02:45:06.447Z,94.26
2023-03-16T02:46:06.528Z,94.41
2023-03-16T02:47:06.414Z,94.58
2023-03-16T02:48:06.410Z,94.47
2023-03-16T02:49:06.406Z,94.26
2023-03-16T02:50:06.392Z,93.84
2023-03-16T02:51:06.390Z,93.57
2023-03-16T02:52:06.372Z,93.57
2023-03-16T02:53:06.345Z,93.68
2023-03-16T02:54:06.331Z,93.78
2023-03-16T02:55:06.325Z,93.78
2023-03-16T02:56:06.300Z,93.88
2023-03-16T02:57:06.286Z,93.99
2023-03-16T02:58:06.272Z,94.10
2023-03-16T02:59:06.266Z,93.88
2023-03-16T03:00:06.255Z,93.72
2023-03-16T03:01:06.233Z,93.82
2023-03-16T03:02:06.227Z,93.93
2023-03-16T03:03:06.285Z,94.24
2023-03-16T03:04:06.203Z,94.67
2023-03-16T03:05:06.206Z,95.08
2023-03-16T03:06:06.179Z,95.15
2023-03-16T03:07:06.181Z,94.93
2023-03-16T03:08:06.160Z,94.83
2023-03-16T03:09:06.142Z,94.62
2023-03-16T03:10:06.150Z,94.62
2023-03-16T03:11:06.106Z,94.62
2023-03-16T03:12:06.095Z,94.41
2023-03-16T03:13:06.077Z,93.88
2023-03-16T03:14:06.063Z,93.57
2023-03-16T03:15:06.072Z,93.51
2023-03-16T03:16:06.117Z,93.72
2023-03-16T03:17:06.030Z,93.82
2023-03-16T03:18:06.016Z,93.93
2023-03-16T03:19:06.015Z,94.18
2023-03-16T03:20:05.983Z,94.56
2023-03-16T03:21:05.981Z,94.67
2023-03-16T03:22:05.957Z,94.87
2023-03-16T03:23:05.985Z,94.87
2023-03-16T03:24:05.940Z,94.92
2023-03-16T03:25:05.927Z,94.92
2023-03-16T03:26:05.911Z,95.13
2023-03-16T03:27:05.900Z,95.19
2023-03-16T03:28:05.974Z,95.40
2023-03-16T03:29:05.881Z,95.40
2023-03-16T03:30:05.865Z,95.29
2023-03-16T03:31:05.851Z,95.08
2023-03-16T03:32:05.828Z,94.98
2023-03-16T03:33:05.918Z,94.87
2023-03-16T03:34:05.830Z,94.77
2023-03-16T03:35:05.802Z,94.56
2023-03-16T03:36:05.856Z,94.56
2023-03-16T03:37:05.767Z,94.56
2023-03-16T03:38:05.761Z,94.67
2023-03-16T03:39:05.776Z,94.67
2023-03-16T03:40:05.724Z,94.56
2023-03-16T03:41:05.720Z,94.56
2023-03-16T03:42:05.706Z,94.45
2023-03-16T03:43:05.704Z,94.56
2023-03-16T03:44:05.684Z,94.45
2023-03-16T03:45:05.677Z,94.45
2023-03-16T03:46:05.794Z,94.45
2023-03-16T03:47:05.728Z,94.56
2023-03-16T03:48:05.651Z,94.45
2023-03-16T03:49:05.630Z,94.45
2023-03-16T03:50:05.594Z,94.56
2023-03-16T03:51:05.671Z,94.56
2023-03-16T03:52:05.576Z,94.56
2023-03-16T03:53:05.571Z,94.24
2023-03-16T03:54:05.562Z,94.18
2023-03-16T03:55:05.565Z,94.14
2023-03-16T03:56:05.527Z,94.14
2023-03-16T03:57:05.512Z,93.97
2023-03-16T03:58:05.499Z,93.97
2023-03-16T03:59:05.486Z,94.29
2023-03-16T04:00:05.477Z,94.45
2023-03-16T04:01:05.464Z,94.39
2023-03-16T04:02:05.574Z,94.29
2023-03-16T04:03:05.583Z,94.29
2023-03-16T04:04:05.422Z,94.14
2023-03-16T04:05:05.400Z,94.08
2023-03-16T04:06:05.395Z,93.87
2023-03-16T04:07:05.391Z,93.97
2023-03-16T04:08:05.366Z,94.08
2023-03-16T04:09:05.349Z,94.49
2023-03-16T04:10:05.343Z,94.71
2023-03-16T04:11:05.363Z,95.13
2023-03-16T04:12:05.326Z,95.23
2023-03-16T04:13:05.294Z,95.19
2023-03-16T04:14:05.295Z,95.02
2023-03-16T04:15:05.269Z,94.92
2023-03-16T04:16:05.268Z,94.49
2023-03-16T04:17:05.376Z,94.35
2023-03-16T04:18:05.237Z,94.14
2023-03-16T04:19:05.229Z,93.55
2023-03-16T04:20:05.212Z,93.34
2023-03-16T04:21:05.199Z,93.34
2023-03-16T04:22:05.179Z,93.24
2023-03-16T04:23:05.180Z,93.55
2023-03-16T04:24:05.183Z,93.76
2023-03-16T04:25:05.146Z,93.87
2023-03-16T04:26:05.129Z,93.87
2023-03-16T04:27:05.155Z,93.87
2023-03-16T04:28:05.111Z,93.97
2023-03-16T04:29:05.101Z,94.08
2023-03-16T04:30:05.085Z,94.33
2023-03-16T04:31:05.129Z,94.71
2023-03-16T04:32:05.052Z,94.71
2023-03-16T04:33:05.112Z,94.49
2023-03-16T04:34:05.032Z,94.60
2023-03-16T04:35:05.012Z,94.65
2023-03-16T04:36:05.139Z,94.43
2023-03-16T04:37:05.008Z,94.23
2023-03-16T04:38:04.973Z,94.12
2023-03-16T04:39:04.969Z,94.12
2023-03-16T04:40:04.956Z,94.33
2023-03-16T04:41:04.952Z,94.65
2023-03-16T04:42:04.920Z,94.85
2023-03-16T04:43:04.942Z,94.65
2023-03-16T04:44:04.921Z,94.43
2023-03-16T04:45:04.893Z,94.54
2023-03-16T04:46:04.922Z,94.33
2023-03-16T04:47:04.868Z,94.33
2023-03-16T04:48:04.848Z,94.48
2023-03-16T04:49:04.832Z,94.48
2023-03-16T04:50:04.827Z,94.48
2023-03-16T04:51:04.817Z,94.69
2023-03-16T04:52:04.802Z,94.79
2023-03-16T04:53:04.802Z,94.90
2023-03-16T04:54:04.776Z,95.17
2023-03-16T04:55:04.760Z,95.17
2023-03-16T04:56:04.747Z,95.17
2023-03-16T04:57:04.739Z,95.17
2023-03-16T04:58:04.728Z,95.28
2023-03-16T04:59:04.727Z,95.38
2023-03-16T05:00:04.692Z,95.28
2023-03-16T05:01:04.682Z,94.96
2023-03-16T05:02:04.679Z,94.54
2023-03-16T05:03:04.677Z,94.43
2023-03-16T05:04:04.662Z,94.54
2023-03-16T05:05:04.633Z,94.54
2023-03-16T05:06:04.613Z,94.65
2023-03-16T05:07:04.608Z,94.75
2023-03-16T05:08:04.609Z,94.75
2023-03-16T05:09:04.574Z,94.65
2023-03-16T05:10:04.575Z,94.43
2023-03-16T05:11:04.560Z,94.23
2023-03-16T05:12:04.545Z,94.23
2023-03-16T05:13:04.535Z,94.23
2023-03-16T05:14:04.516Z,94.12
2023-03-16T05:15:04.529Z,94.01
2023-03-16T05:16:04.604Z,94.06
2023-03-16T05:17:04.478Z,94.37
2023-03-16T05:18:04.466Z,94.48
2023-03-16T05:19:04.457Z,94.54
2023-03-16T05:20:04.441Z,94.65
2023-03-16T05:21:04.417Z,94.85
2023-03-16T05:22:04.414Z,94.85
2023-03-16T05:23:04.394Z,94.75
2023-03-16T05:24:04.382Z,94.54
2023-03-16T05:25:04.372Z,94.43
2023-03-16T05:26:04.357Z,94.33
2023-03-16T05:27:04.369Z,94.12
2023-03-16T05:28:04.339Z,94.01
2023-03-16T05:29:04.313Z,94.23
2023-03-16T05:30:04.309Z,94.12
2023-03-16T05:31:04.345Z,93.85
2023-03-16T05:32:04.311Z,93.74
2023-03-16T05:33:04.388Z,93.53
2023-03-16T05:34:04.257Z,93.53
2023-03-16T05:35:04.240Z,93.53
2023-03-16T05:36:04.317Z,93.74
2023-03-16T05:37:04.221Z,93.85
2023-03-16T05:38:04.198Z,93.85
2023-03-16T05:39:04.197Z,93.99
2023-03-16T05:40:04.183Z,94.17
2023-03-16T05:41:05.938Z,94.69
2023-03-16T05:42:04.146Z,94.90
2023-03-16T05:43:04.142Z,94.90
2023-03-16T05:44:04.130Z,94.69
2023-03-16T05:45:04.133Z,94.58
2023-03-16T05:46:04.120Z,94.58
2023-03-16T05:47:04.304Z,94.54
2023-03-16T05:48:04.088Z,94.58
2023-03-16T05:49:04.063Z,94.58
2023-03-16T05:50:04.048Z,94.54
2023-03-16T05:51:04.044Z,94.54
2023-03-16T05:52:04.038Z,94.43
2023-03-16T05:53:04.029Z,94.43
2023-03-16T05:54:03.996Z,94.23
2023-03-16T05:55:03.992Z,94.08
2023-03-16T05:56:03.980Z,93.80
2023-03-16T05:57:03.966Z,93.70
2023-03-16T05:58:05.739Z,93.87
2023-03-16T05:59:03.932Z,93.87
2023-03-16T06:00:03.925Z,93.87
2023-03-16T06:01:03.912Z,93.66
2023-03-16T06:02:03.904Z,93.55
2023-03-16T06:03:03.949Z,93.34
2023-03-16T06:04:03.916Z,93.24
2023-03-16T06:05:03.868Z,93.24
2023-03-16T06:06:03.852Z,93.24
2023-03-16T06:07:03.854Z,93.13
2023-03-16T06:08:03.825Z,93.34
2023-03-16T06:09:03.822Z,93.40
2023-03-16T06:10:03.801Z,93.30
2023-03-16T06:11:03.799Z,93.09
2023-03-16T06:12:03.767Z,93.19
2023-03-16T06:13:03.749Z,92.99
2023-03-16T06:14:03.748Z,92.67
2023-03-16T06:15:03.730Z,92.25
2023-03-16T06:16:03.756Z,92.04
2023-03-16T06:17:03.701Z,91.94
2023-03-16T06:18:03.688Z,91.83
2023-03-16T06:19:03.710Z,91.62
2023-03-16T06:20:03.678Z,91.62
2023-03-16T06:21:03.648Z,91.72
2023-03-16T06:22:03.760Z,92.04
2023-03-16T06:23:03.641Z,92.25
2023-03-16T06:24:03.640Z,92.14
2023-03-16T06:25:03.607Z,92.10
2023-03-16T06:26:03.599Z,92.10
2023-03-16T06:27:03.573Z,91.89
2023-03-16T06:28:03.560Z,91.79
2023-03-16T06:29:03.564Z,91.53
2023-03-16T06:30:03.540Z,91.53
2023-03-16T06:31:03.519Z,91.01
2023-03-16T06:32:03.511Z,90.70
2023-03-16T06:33:03.600Z,90.55
2023-03-16T06:34:03.493Z,90.20
2023-03-16T06:35:03.524Z,89.53
2023-03-16T06:36:03.549Z,88.46
2023-03-16T06:37:03.445Z,86.61
2023-03-16T06:38:03.436Z,84.65
2023-03-16T06:39:03.428Z,82.90
2023-03-16T06:40:03.407Z,80.91
2023-03-16T06:41:03.400Z,78.31
2023-03-16T06:42:03.392Z,75.19
2023-03-16T06:43:03.376Z,72.35
2023-03-16T06:44:03.375Z,70.94
2023-03-16T06:45:03.346Z,69.98
2023-03-16T06:46:03.435Z,67.71
2023-03-16T06:47:03.326Z,64.90
2023-03-16T06:48:03.305Z,62.13
2023-03-16T06:49:03.291Z,59.89
2023-03-16T06:50:03.287Z,57.75
2023-03-16T06:51:03.324Z,56.49
2023-03-16T06:52:03.254Z,54.79
2023-03-16T06:53:03.240Z,54.08
2023-03-16T06:54:03.239Z,53.46
2023-03-16T06:55:03.225Z,53.61
2023-03-16T06:56:03.204Z,53.00
2023-03-16T06:57:03.200Z,52.47
2023-03-16T06:58:03.197Z,51.70
2023-03-16T06:59:03.181Z,51.29
2023-03-16T07:00:03.164Z,50.93
2023-03-16T07:01:03.218Z,50.60
2023-03-16T07:02:03.133Z,49.35
2023-03-16T07:03:03.123Z,48.82
2023-03-16T07:04:03.157Z,48.80
2023-03-16T07:05:03.078Z,48.18
2023-03-16T07:06:03.084Z,47.57
2023-03-16T07:07:03.115Z,47.86
2023-03-16T07:08:03.048Z,47.96
2023-03-16T07:09:03.036Z,47.45
2023-03-16T07:10:03.045Z,47.14
2023-03-16T07:11:03.017Z,48.39
2023-03-16T07:12:02.998Z,48.69
2023-03-16T07:13:02.981Z,47.98
2023-03-16T07:14:02.976Z,48.61
2023-03-16T07:15:02.966Z,48.23
2023-03-16T07:16:02.942Z,49.50
2023-03-16T07:17:03.024Z,50.30
2023-03-16T07:18:02.933Z,50.17
2023-03-16T07:19:02.940Z,49.21
2023-03-16T07:20:02.900Z,47.94
2023-03-16T07:21:02.881Z,48.02
2023-03-16T07:22:02.885Z,47.79
2023-03-16T07:23:02.915Z,47.46
2023-03-16T07:24:02.846Z,47.36
2023-03-16T07:25:02.842Z,46.85
2023-03-16T07:26:02.820Z,46.85
2023-03-16T07:27:02.806Z,46.75
2023-03-16T07:28:02.795Z,46.87
2023-03-16T07:29:02.783Z,48.34
2023-03-16T07:30:02.780Z,48.90
2023-03-16T07:31:04.329Z,49.87
2023-03-16T07:32:02.970Z,51.67
2023-03-16T07:33:02.796Z,53.05
2023-03-16T07:34:02.713Z,54.10
2023-03-16T07:35:02.705Z,55.36
2023-03-16T07:36:02.728Z,55.90
2023-03-16T07:37:02.674Z,56.02
2023-03-16T07:38:02.670Z,56.18
2023-03-16T07:39:02.674Z,56.85
2023-03-16T07:40:02.650Z,59.04
2023-03-16T07:41:02.630Z,61.83
2023-03-16T07:42:02.605Z,64.45
2023-03-16T07:43:02.597Z,64.86
2023-03-16T07:44:02.581Z,64.86
2023-03-16T07:45:02.582Z,64.99
2023-03-16T07:46:02.616Z,66.09
2023-03-16T07:47:02.547Z,67.19
2023-03-16T07:48:02.528Z,67.71
2023-03-16T07:49:02.534Z,68.12
2023-03-16T07:50:02.501Z,67.43
2023-03-16T07:51:02.492Z,68.60
2023-03-16T07:52:02.490Z,69.53
2023-03-16T07:53:02.467Z,70.15
2023-03-16T07:54:02.468Z,70.05
2023-03-16T07:55:02.487Z,69.98
2023-03-16T07:56:02.428Z,71.08
2023-03-16T07:57:02.422Z,70.15
2023-03-16T07:58:02.396Z,70.32
2023-03-16T07:59:02.401Z,71.46
2023-03-16T08:00:02.412Z,71.94
2023-03-16T08:01:02.361Z,70.81
2023-03-16T08:02:02.405Z,69.92
2023-03-16T08:03:02.375Z,69.48
2023-03-16T08:04:02.453Z,69.68
2023-03-16T08:05:02.315Z,68.82
2023-03-16T08:06:02.294Z,69.13
2023-03-16T08:07:02.437Z,67.32
2023-03-16T08:08:02.288Z,66.25
2023-03-16T08:09:02.264Z,66.30
2023-03-16T08:10:02.249Z,65.41
2023-03-16T08:11:02.257Z,63.32
2023-03-16T08:12:02.228Z,62.78
2023-03-16T08:13:02.384Z,62.34
2023-03-16T08:14:02.194Z,61.87
2023-03-16T08:15:02.234Z,59.89
2023-03-16T08:16:02.507Z,58.79
2023-03-16T08:17:02.195Z,56.89
2023-03-16T08:18:02.163Z,56.35
2023-03-16T08:19:02.168Z,55.46
2023-03-16T08:20:02.173Z,55.05
2023-03-16T08:21:02.139Z,54.74
2023-03-16T08:22:02.327Z,54.57
2023-03-16T08:23:02.106Z,55.82
2023-03-16T08:24:02.077Z,57.07
2023-03-16T08:25:02.072Z,56.18
2023-03-16T08:26:02.041Z,55.69
2023-03-16T08:27:02.059Z,56.61
2023-03-16T08:28:02.007Z,57.74
2023-03-16T08:29:02.040Z,57.02
2023-03-16T08:30:01.993Z,56.33
2023-03-16T08:31:02.075Z,56.77
2023-03-16T08:32:01.965Z,58.92
2023-03-16T08:33:02.027Z,59.77
2023-03-16T08:34:01.978Z,59.48
2023-03-16T08:35:01.924Z,59.08
2023-03-16T08:36:01.930Z,59.25
2023-03-16T08:37:01.938Z,59.53
2023-03-16T08:38:01.901Z,58.30
2023-03-16T08:39:06.972Z,59.53
2023-03-16T08:40:01.868Z,58.20
2023-03-16T08:41:01.860Z,58.84
2023-03-16T08:42:02.049Z,58.87
2023-03-16T08:43:01.864Z,60.21
2023-03-16T08:44:01.816Z,60.21
2023-03-16T08:45:01.810Z,61.49
2023-03-16T08:46:01.884Z,61.46
2023-03-16T08:47:01.775Z,60.92
2023-03-16T08:48:01.768Z,60.66
2023-03-16T08:49:01.748Z,59.12
2023-03-16T08:50:01.735Z,57.87
2023-03-16T08:51:01.724Z,54.57
2023-03-16T08:52:01.727Z,51.54
2023-03-16T08:53:01.706Z,52.12
2023-03-16T08:54:01.701Z,56.46
2023-03-16T08:55:03.742Z,56.28
2023-03-16T08:56:01.668Z,54.25
2023-03-16T08:57:01.645Z,54.90
2023-03-16T08:58:01.644Z,56.72
2023-03-16T08:59:01.760Z,57.44
2023-03-16T09:00:01.616Z,56.72
2023-03-16T09:01:01.602Z,56.00
2023-03-16T09:02:01.644Z,57.44
2023-03-16T09:03:01.575Z,55.87
2023-03-16T09:04:01.612Z,54.00
2023-03-16T09:05:01.565Z,52.74
2023-03-16T09:06:01.539Z,52.04
2023-03-16T09:07:09.077Z,51.84
2023-03-16T09:08:02.561Z,53.49
2023-03-16T09:09:01.521Z,55.28
2023-03-16T09:10:01.488Z,54.10
2023-03-16T09:11:01.469Z,50.67
2023-03-16T09:12:01.464Z,53.62
2023-03-16T09:13:01.463Z,50.20
2023-03-16T09:14:01.436Z,48.72
2023-03-16T09:15:01.442Z,47.98
2023-03-16T09:16:01.437Z,47.06
2023-03-16T09:17:01.401Z,47.06
2023-03-16T09:18:01.379Z,47.61
2023-03-16T09:19:01.380Z,47.23
2023-03-16T09:20:11.588Z,49.40
2023-03-16T09:21:02.370Z,47.30
2023-03-16T09:22:01.344Z,47.75
2023-03-16T09:23:01.318Z,49.66
2023-03-16T09:24:01.304Z,50.10
2023-03-16T09:25:01.291Z,51.53
2023-03-16T09:26:01.276Z,50.71
2023-03-16T09:27:01.306Z,50.84
2023-03-16T09:28:01.260Z,52.81
2023-03-16T09:29:01.240Z,53.43
2023-03-16T09:30:01.235Z,52.73
2023-03-16T09:31:01.276Z,52.04
2023-03-16T09:32:01.201Z,52.40
2023-03-16T09:33:01.351Z,53.12
2023-03-16T09:34:01.178Z,54.74
2023-03-16T09:35:01.170Z,52.86
2023-03-16T09:36:01.218Z,53.28
2023-03-16T09:37:01.367Z,51.53
2023-03-16T09:38:05.881Z,51.50
2023-03-16T09:39:01.109Z,53.41
2023-03-16T09:40:10.183Z,50.15
2023-03-16T09:41:02.154Z,49.49
2023-03-16T09:42:01.083Z,47.85
2023-03-16T09:43:01.064Z,47.56
2023-03-16T09:44:01.045Z,48.57
2023-03-16T09:45:01.055Z,50.57
2023-03-16T09:46:01.082Z,50.34
2023-03-16T09:47:01.060Z,48.99
2023-03-16T09:48:01.009Z,48.09
2023-03-16T09:49:00.985Z,46.91
2023-03-16T09:50:00.976Z,47.26
2023-03-16T09:51:01.045Z,47.69
2023-03-16T09:52:00.950Z,48.56
2023-03-16T09:53:00.945Z,50.43
2023-03-16T09:54:00.913Z,52.69
2023-03-16T09:55:01.110Z,50.94
2023-03-16T09:56:00.891Z,49.91
2023-03-16T09:57:00.898Z,48.99
2023-03-16T09:58:00.872Z,49.48
2023-03-16T09:59:00.849Z,49.48
2023-03-16T10:00:00.852Z,50.38
2023-03-16T10:01:00.878Z,49.64
2023-03-16T10:02:00.822Z,50.36
2023-03-16T10:03:00.824Z,49.56
2023-03-16T10:04:01.006Z,51.31
2023-03-16T10:05:00.791Z,49.58
2023-03-16T10:06:00.773Z,50.10
2023-03-16T10:07:00.753Z,51.95
2023-03-16T10:08:00.742Z,51.33
2023-03-16T10:09:00.735Z,52.48
2023-03-16T10:10:00.747Z,51.76
2023-03-16T10:11:00.709Z,51.97
2023-03-16T10:12:00.690Z,51.15
2023-03-16T10:13:00.686Z,48.79
2023-03-16T10:14:00.663Z,47.84
2023-03-16T10:15:00.700Z,48.94
2023-03-16T10:16:00.637Z,49.54
2023-03-16T10:17:00.623Z,48.92
2023-03-16T10:18:00.603Z,47.71
2023-03-16T10:19:00.622Z,47.61
2023-03-16T10:20:00.597Z,46.61
2023-03-16T10:21:00.575Z,46.81
2023-03-16T10:22:00.551Z,47.74
2023-03-16T10:23:00.564Z,47.55
2023-03-16T10:24:00.545Z,47.16
2023-03-16T10:25:00.533Z,50.02
2023-03-16T10:26:00.508Z,48.89
2023-03-16T10:27:00.549Z,47.27
2023-03-16T10:28:00.490Z,48.32
2023-03-16T10:29:00.471Z,50.58
2023-03-16T10:30:00.456Z,51.20
2023-03-16T10:31:00.435Z,52.12
2023-03-16T10:32:00.491Z,52.84
2023-03-16T10:33:00.510Z,52.22
2023-03-16T10:34:00.406Z,52.12
2023-03-16T10:35:00.415Z,52.01
2023-03-16T10:36:00.385Z,52.99
2023-03-16T10:37:00.370Z,55.15
2023-03-16T10:38:00.358Z,54.10
2023-03-16T10:39:00.326Z,49.78
2023-03-16T10:40:00.329Z,49.49
2023-03-16T10:41:00.313Z,50.93
2023-03-16T10:42:00.317Z,52.89
2023-03-16T10:43:00.289Z,54.94
2023-03-16T10:44:00.280Z,54.13
2023-03-16T10:45:01.942Z,55.18
2023-03-16T10:46:00.280Z,57.73
2023-03-16T10:47:00.297Z,57.29
2023-03-16T10:48:00.230Z,54.51
2023-03-16T10:49:00.446Z,53.38
2023-03-16T10:50:00.226Z,52.45
2023-03-16T10:51:00.244Z,52.33
2023-03-16T10:52:00.180Z,53.77
2023-03-16T10:53:00.162Z,53.66
2023-03-16T10:54:00.173Z,54.90
2023-03-16T10:55:00.148Z,53.43
2023-03-16T10:56:00.131Z,51.48
2023-03-16T10:57:00.115Z,51.09
2023-03-16T10:58:00.107Z,51.71
2023-03-16T10:59:00.113Z,53.35
2023-03-16T11:00:00.088Z,53.97
2023-03-16T11:01:00.177Z,54.97
2023-03-16T11:02:00.065Z,53.64
2023-03-16T11:03:00.046Z,53.41
2023-03-16T11:04:00.039Z,50.53
2023-03-16T11:05:00.084Z,50.66
2023-03-16T11:06:00.010Z,52.73
2023-03-16T11:07:00.105Z,54.59
2023-03-16T11:07:59.982Z,55.49
2023-03-16T11:08:59.967Z,52.33
2023-03-16T11:09:59.955Z,55.30
2023-03-16T11:10:59.934Z,55.69
2023-03-16T11:11:59.929Z,53.74
2023-03-16T11:13:02.053Z,54.97
2023-03-16T11:13:59.901Z,53.23
2023-03-16T11:14:59.888Z,51.07
2023-03-16T11:15:59.879Z,51.07
2023-03-16T11:16:59.988Z,52.43
2023-03-16T11:18:05.855Z,54.49
2023-03-16T11:18:59.847Z,56.44
2023-03-16T11:19:59.826Z,56.02
2023-03-16T11:20:59.813Z,57.78
2023-03-16T11:21:59.808Z,60.21
2023-03-16T11:22:59.813Z,57.54
2023-03-16T11:23:59.779Z,59.26
2023-03-16T11:24:59.770Z,57.79
2023-03-16T11:25:59.739Z,55.64
2023-03-16T11:26:59.738Z,54.08
2023-03-16T11:27:59.749Z,54.28
2023-03-16T11:28:59.714Z,54.49
2023-03-16T11:29:59.685Z,53.46
2023-03-16T11:30:59.716Z,51.82
2023-03-16T11:31:59.671Z,50.10
2023-03-16T11:32:59.724Z,51.53
2023-03-16T11:33:59.845Z,49.89
2023-03-16T11:34:59.628Z,51.92
2023-03-16T11:35:59.882Z,52.84
2023-03-16T11:36:59.629Z,52.23
2023-03-16T11:37:59.604Z,52.44
2023-03-16T11:38:59.615Z,51.92
2023-03-16T11:39:59.591Z,52.54
2023-03-16T11:40:59.563Z,54.57
2023-03-16T11:41:59.565Z,51.39
2023-03-16T11:42:59.543Z,53.74
2023-03-16T11:43:59.514Z,53.54
2023-03-16T11:44:59.498Z,54.85
2023-03-16T11:45:59.576Z,52.18
2023-03-16T11:46:59.486Z,51.07
2023-03-16T11:47:59.468Z,50.59
2023-03-16T11:48:59.450Z,51.10
2023-03-16T11:49:59.435Z,51.31
2023-03-16T11:50:59.433Z,48.13
2023-03-16T11:51:59.408Z,52.92
2023-03-16T11:52:59.397Z,50.97
2023-03-16T11:53:59.383Z,46.05
2023-03-16T11:54:59.432Z,49.95
2023-03-16T11:55:59.357Z,47.49
2023-03-16T11:56:59.356Z,48.10
2023-03-16T11:57:59.342Z,47.49
2023-03-16T11:58:59.317Z,48.82
2023-03-16T12:00:01.475Z,48.51
2023-03-16T12:00:59.297Z,48.72
2023-03-16T12:02:01.014Z,48.72
2023-03-16T12:02:59.316Z,48.72
2023-03-16T12:03:59.405Z,48.31
2023-03-16T12:04:59.242Z,48.51
2023-03-16T12:05:59.790Z,46.25
2023-03-16T12:06:59.217Z,46.77
2023-03-16T12:07:59.202Z,46.87
2023-03-16T12:08:59.199Z,46.77
2023-03-16T12:09:59.172Z,46.46
2023-03-16T12:10:59.188Z,48.10
2023-03-16T12:11:59.159Z,47.46
2023-03-16T12:12:59.132Z,47.16
2023-03-16T12:13:59.123Z,49.31
2023-03-16T12:14:59.110Z,47.24
2023-03-16T12:15:59.102Z,47.73
2023-03-16T12:17:01.245Z,45.47
2023-03-16T12:17:59.076Z,46.19
2023-03-16T12:18:59.059Z,48.75
2023-03-16T12:19:59.066Z,48.85
2023-03-16T12:20:59.034Z,47.81
2023-03-16T12:21:59.015Z,46.58
2023-03-16T12:22:59.003Z,46.27
2023-03-16T12:23:58.999Z,45.56
2023-03-16T12:24:58.988Z,44.84
2023-03-16T12:25:58.970Z,46.48
2023-03-16T12:26:58.992Z,44.65
2023-03-16T12:27:58.957Z,43.84
2023-03-16T12:28:58.928Z,44.68
2023-03-16T12:29:58.923Z,44.06
2023-03-16T12:30:58.901Z,46.70
2023-03-16T12:31:58.891Z,47.11
2023-03-16T12:32:58.916Z,46.68
2023-03-16T12:33:58.875Z,47.40
2023-03-16T12:34:58.849Z,48.91
2023-03-16T12:35:58.887Z,43.49
2023-03-16T12:36:58.845Z,43.30
2023-03-16T12:37:58.834Z,44.12
2023-03-16T12:38:58.815Z,46.25
2023-03-16T12:39:58.796Z,43.38
2023-03-16T12:40:58.778Z,45.12
2023-03-16T12:41:58.774Z,46.56
2023-03-16T12:42:58.779Z,45.82
2023-03-16T12:43:58.865Z,43.88
2023-03-16T12:44:58.721Z,42.44
2023-03-16T12:45:58.756Z,43.49
2023-03-16T12:46:58.694Z,49.30
2023-03-16T12:47:58.689Z,47.85
2023-03-16T12:48:58.677Z,44.57
2023-03-16T12:49:58.860Z,42.81
2023-03-16T12:50:58.640Z,43.12
2023-03-16T12:51:58.643Z,43.73